• Join FlightAware (Why Join?)
  • Login
  • US Flag 
05:42AM EDT


 

Airport Tracker/Info


-or-


 

Live Flight TrackerFlight Track Log ✈ ASQ5958 ✈ 10-May-2013 ✈ KORD - KTYS

Flight Track Log - Related Links

Times and Time Zones

All times are in EDT time to prevent confusion due to time zone crossing. See the ASQ5958 flight status page for this flight to view local times or setup timezone preferences in your user account.

Time Position Orientation Groundspeed Altitude Reporting Facility
EDT Latitude Longitude Course Direction KTS MPH feet Rate Location/Type
07:06PM 41.9500 -87.8000 90° East 216 249 4,100  Level Chicago TRACON
07:08PM 41.7858 -87.7847 176° South 268 308 5,000 840 Climbing Chicago Center
07:09PM 41.7092 -87.7811 178° South 273 314 7,000 1,980 Climbing Chicago Center
07:10PM 41.6281 -87.7711 175° South 287 330 9,100 1,980 Climbing Chicago Center
07:11PM 41.2000 -87.5323 90° East  Level FlightAware Approximate
07:11PM 41.5583 -87.7072 146° Southeast 301 346 11,100  Level Chicago Center
07:12PM 41.4886 -87.6364 143° Southeast 312 359 12,700 1,200 Climbing Chicago Center
07:14PM 41.4092 -87.5706 148° Southeast 341 392 13,700 960 Climbing Chicago Center
07:15PM 41.3111 -87.5531 172° South 354 407 14,700 1,080 Climbing Chicago Center
07:16PM 41.1886 -87.5303 172° South 367 422 16,000 1,080 Climbing Chicago Center
07:17PM 41.0858 -87.5031 169° South 375 432 17,000 960 Climbing Chicago Center
07:18PM 40.9806 -87.4733 168° South 383 441 18,100 960 Climbing Chicago Center
07:19PM 40.8758 -87.4447 168° South 385 443 19,100 960 Climbing Chicago Center
07:20PM 40.7658 -87.4186 170° South 397 457 20,200 1,020 Climbing Chicago Center
07:21PM 40.6578 -87.3886 168° South 396 456 21,300 1,200 Climbing Chicago Center
07:22PM 40.5283 -87.3550 169° South 395 455 22,800 1,260 Climbing Chicago Center
07:23PM 40.4367 -87.3203 164° South 398 458 24,000 1,200 Climbing Chicago Center
07:24PM 40.3289 -87.2194 144° Southeast 401 461 25,400 1,260 Climbing Chicago Center
07:25PM 40.2394 -87.1350 144° Southeast 398 458 26,700 1,200 Climbing Chicago Center
07:26PM 40.1514 -87.0542 145° Southeast 390 449 27,900 1,080 Climbing Chicago Center
07:26PM 40.1147 -87.0211 145° Southeast 387 445 28,400 660 Climbing Indianapolis Center
07:27PM 40.0108 -86.9236 144° Southeast 387 445 29,000 600 Climbing Indianapolis Center
07:29PM 39.9164 -86.8439 147° Southeast 400 460 29,700 960 Climbing Indianapolis Center
07:30PM 39.8214 -86.7725 150° Southeast 401 461 31,000 1,140 Climbing Indianapolis Center
07:31PM 39.7297 -86.6983 148° Southeast 394 453 32,100 1,020 Climbing Indianapolis Center
07:32PM 39.6467 -86.6064 140° Southeast 398 458 33,200 1,200 Climbing Indianapolis Center
07:33PM 39.5494 -86.4961 139° Southeast 393 452 34,600 840 Climbing Indianapolis Center
07:34PM 39.4603 -86.4267 149° Southeast 382 440 35,000 180 Climbing Indianapolis Center
07:35PM 39.3633 -86.3583 151° Southeast 395 455 35,000  Level Indianapolis Center
07:36PM 39.2622 -86.2867 151° Southeast 415 478 35,000  Level Indianapolis Center
07:37PM 39.1564 -86.2144 152° Southeast 429 494 35,000  Level Indianapolis Center
07:38PM 39.0511 -86.1392 151° Southeast 435 501 35,000  Level Indianapolis Center
07:39PM 38.9236 -86.0517 152° Southeast 435 501 35,000  Level Indianapolis Center
07:40PM 38.8214 -85.9797 151° Southeast 432 497 35,000  Level Indianapolis Center
07:41PM 38.7158 -85.9083 152° Southeast 428 493 35,000  Level Indianapolis Center
07:42PM 38.6100 -85.8342 151° Southeast 428 493 35,000  Level Indianapolis Center
07:43PM 38.5036 -85.7617 152° Southeast 430 495 35,000  Level Indianapolis Center
07:44PM 38.3981 -85.6897 152° Southeast 429 494 35,000  Level Indianapolis Center
07:45PM 38.2931 -85.6175 152° Southeast 426 490 35,000  Level Indianapolis Center
07:46PM 38.1875 -85.5467 152° Southeast 425 489 35,000  Level Indianapolis Center
07:47PM 38.0617 -85.4606 152° Southeast 424 488 35,000 -300 Level Indianapolis Center
07:48PM 37.9550 -85.3903 153° Southeast 428 493 34,400 -840 Descending Indianapolis Center
07:49PM 37.8497 -85.3197 152° Southeast 427 491 33,300 -1,320 Descending Indianapolis Center
07:50PM 37.7383 -85.2436 152° Southeast 428 493 31,700 -1,020 Descending Indianapolis Center
07:52PM 37.5186 -85.0989 152° Southeast 445 512 30,300 -960 Descending Indianapolis Center
07:53PM 37.4053 -85.0411 158° South 442 509 28,900 -1,440 Descending Indianapolis Center
07:54PM 37.2869 -85.0097 168° South 433 498 27,400 -1,500 Descending Indianapolis Center
07:55PM 37.1706 -84.9844 170° South 424 488 25,900 -1,440 Descending Indianapolis Center
07:56PM 37.0653 -84.9447 163° South 400 460 24,500 -960 Descending Indianapolis Center
07:57PM 36.9558 -84.8581 148° Southeast 402 463 24,000 -300 Descending Indianapolis Center
07:58PM 36.8606 -84.7853 149° Southeast 401 461 24,000 -660 Level Indianapolis Center
07:59PM 36.7628 -84.7114 149° Southeast 408 470 22,700 -1,920 Descending Indianapolis Center
08:00PM 36.6653 -84.6364 148° Southeast 410 472 20,100 -2,700 Descending Indianapolis Center
08:01PM 36.5736 -84.5675 149° Southeast 390 449 17,200 -2,880 Descending Indianapolis Center
08:02PM 36.4836 -84.4994 149° Southeast 381 438 14,300 -2,640 Descending Indianapolis Center
08:03PM 36.3969 -84.4331 148° Southeast 371 427 11,900 -1,800 Descending Indianapolis Center
08:04PM 36.3186 -84.3731 148° Southeast 341 392 10,700 -1,440 Descending Indianapolis Center
08:05PM 36.2353 -84.3167 151° Southeast 310 357 9,000 -1,740 Descending Atlanta Center
08:06PM 36.1769 -84.2728 149° Southeast 278 320 7,200 -1,500 Descending Atlanta Center
08:07PM 36.1186 -84.2211 144° Southeast 267 307 6,000 -1,200 Descending Atlanta Center
08:08PM 36.0728 -84.1517 129° Southeast 257 296 4,900 -1,080 Descending Atlanta Center
08:09PM 36.0333 -84.0875 127° Southeast 246 283 3,900 -480 Descending Atlanta Center
08:10PM 35.9936 -84.0286 130° Southeast 235 270 4,000  Climbing Atlanta Center
08:11PM 35.9497 -83.9772 137° Southeast 223 257 3,900 -600 Descending Atlanta Center
08:12PM 35.9039 -83.9336 142° Southeast 213 245 2,900 -1,020 Descending Atlanta Center